sensor_id;sensor_type;location;lat;lon;timestamp;temperature;humidity
28177;DHT22;15461;41.652;9.378;2023-04-24T00:00:55;16.70;99.90
28177;DHT22;15461;41.652;9.378;2023-04-24T00:03:24;16.70;99.90
28177;DHT22;15461;41.652;9.378;2023-04-24T00:05:51;16.60;99.90
28177;DHT22;15461;41.652;9.378;2023-04-24T00:08:18;16.60;99.90
28177;DHT22;15461;41.652;9.378;2023-04-24T00:10:44;16.60;99.90
28177;DHT22;15461;41.652;9.378;2023-04-24T00:13:10;16.60;99.90
28177;DHT22;15461;41.652;9.378;2023-04-24T00:15:36;16.50;99.90
28177;DHT22;15461;41.652;9.378;2023-04-24T00:18:01;16.50;99.90
28177;DHT22;15461;41.652;9.378;2023-04-24T00:20:28;16.50;99.90
28177;DHT22;15461;41.652;9.378;2023-04-24T00:23:03;16.50;99.90
28177;DHT22;15461;41.652;9.378;2023-04-24T00:25:29;16.50;99.90
28177;DHT22;15461;41.652;9.378;2023-04-24T00:27:54;16.50;99.90
28177;DHT22;15461;41.652;9.378;2023-04-24T00:30:20;16.50;99.90
28177;DHT22;15461;41.652;9.378;2023-04-24T00:32:47;16.40;99.90
28177;DHT22;15461;41.652;9.378;2023-04-24T00:35:13;16.40;99.90
28177;DHT22;15461;41.652;9.378;2023-04-24T00:37:40;16.40;99.90
28177;DHT22;15461;41.652;9.378;2023-04-24T00:40:06;16.30;99.90
28177;DHT22;15461;41.652;9.378;2023-04-24T00:42:33;16.30;99.90
28177;DHT22;15461;41.652;9.378;2023-04-24T00:45:00;16.30;99.90
28177;DHT22;15461;41.652;9.378;2023-04-24T00:47:27;16.30;99.90
28177;DHT22;15461;41.652;9.378;2023-04-24T00:49:54;16.30;99.90
28177;DHT22;15461;41.652;9.378;2023-04-24T00:52:20;16.30;99.90
28177;DHT22;15461;41.652;9.378;2023-04-24T00:54:50;16.40;99.90
28177;DHT22;15461;41.652;9.378;2023-04-24T00:57:16;16.40;99.90
28177;DHT22;15461;41.652;9.378;2023-04-24T00:59:43;16.30;99.90
28177;DHT22;15461;41.652;9.378;2023-04-24T01:02:10;16.20;99.90
28177;DHT22;15461;41.652;9.378;2023-04-24T01:04:37;16.10;99.90
28177;DHT22;15461;41.652;9.378;2023-04-24T01:07:04;16.00;99.90
28177;DHT22;15461;41.652;9.378;2023-04-24T01:09:39;16.00;99.90
28177;DHT22;15461;41.652;9.378;2023-04-24T01:12:06;16.00;99.90
28177;DHT22;15461;41.652;9.378;2023-04-24T01:14:33;15.90;99.90
28177;DHT22;15461;41.652;9.378;2023-04-24T01:16:59;15.90;99.90
28177;DHT22;15461;41.652;9.378;2023-04-24T01:19:27;15.80;99.90
28177;DHT22;15461;41.652;9.378;2023-04-24T01:21:54;15.80;99.90
28177;DHT22;15461;41.652;9.378;2023-04-24T01:24:23;15.80;99.90
28177;DHT22;15461;41.652;9.378;2023-04-24T01:26:50;15.80;99.90
28177;DHT22;15461;41.652;9.378;2023-04-24T01:29:18;15.80;99.90
28177;DHT22;15461;41.652;9.378;2023-04-24T01:31:44;15.80;99.90
28177;DHT22;15461;41.652;9.378;2023-04-24T01:34:10;15.80;99.90
28177;DHT22;15461;41.652;9.378;2023-04-24T01:36:36;15.80;99.90
28177;DHT22;15461;41.652;9.378;2023-04-24T01:39:03;15.80;99.90
28177;DHT22;15461;41.652;9.378;2023-04-24T01:41:30;15.80;99.90
28177;DHT22;15461;41.652;9.378;2023-04-24T01:43:57;15.80;99.90
28177;DHT22;15461;41.652;9.378;2023-04-24T01:46:24;15.80;99.90
28177;DHT22;15461;41.652;9.378;2023-04-24T01:48:51;15.70;99.90
28177;DHT22;15461;41.652;9.378;2023-04-24T01:51:19;15.70;99.90
28177;DHT22;15461;41.652;9.378;2023-04-24T01:53:45;15.60;99.90
28177;DHT22;15461;41.652;9.378;2023-04-24T01:56:11;15.60;99.90
28177;DHT22;15461;41.652;9.378;2023-04-24T01:58:37;15.60;99.90
28177;DHT22;15461;41.652;9.378;2023-04-24T02:01:05;15.60;99.90
28177;DHT22;15461;41.652;9.378;2023-04-24T02:03:31;15.50;99.90
28177;DHT22;15461;41.652;9.378;2023-04-24T02:05:58;15.50;99.90
28177;DHT22;15461;41.652;9.378;2023-04-24T02:08:24;15.50;99.90
28177;DHT22;15461;41.652;9.378;2023-04-24T02:10:50;15.50;99.90
28177;DHT22;15461;41.652;9.378;2023-04-24T02:13:16;15.40;99.90
28177;DHT22;15461;41.652;9.378;2023-04-24T02:15:41;15.50;99.90
28177;DHT22;15461;41.652;9.378;2023-04-24T02:18:07;15.40;99.90
28177;DHT22;15461;41.652;9.378;2023-04-24T02:20:33;15.40;99.90
28177;DHT22;15461;41.652;9.378;2023-04-24T02:23:01;15.40;99.90
28177;DHT22;15461;41.652;9.378;2023-04-24T02:25:27;15.40;99.90
28177;DHT22;15461;41.652;9.378;2023-04-24T02:27:54;15.30;99.90
28177;DHT22;15461;41.652;9.378;2023-04-24T02:30:20;15.30;99.90
28177;DHT22;15461;41.652;9.378;2023-04-24T02:32:46;15.40;99.90
28177;DHT22;15461;41.652;9.378;2023-04-24T02:35:12;15.40;99.90
28177;DHT22;15461;41.652;9.378;2023-04-24T02:37:38;15.50;99.90
28177;DHT22;15461;41.652;9.378;2023-04-24T02:40:05;15.60;99.90
28177;DHT22;15461;41.652;9.378;2023-04-24T02:42:31;15.70;99.90
28177;DHT22;15461;41.652;9.378;2023-04-24T02:44:57;15.80;99.90
28177;DHT22;15461;41.652;9.378;2023-04-24T02:47:23;15.90;99.90
28177;DHT22;15461;41.652;9.378;2023-04-24T02:49:49;15.90;99.90
28177;DHT22;15461;41.652;9.378;2023-04-24T02:52:15;16.00;99.90
28177;DHT22;15461;41.652;9.378;2023-04-24T02:54:41;16.00;99.90
28177;DHT22;15461;41.652;9.378;2023-04-24T02:57:07;16.00;99.90
28177;DHT22;15461;41.652;9.378;2023-04-24T02:59:32;16.10;99.90
28177;DHT22;15461;41.652;9.378;2023-04-24T03:01:59;16.10;99.90
28177;DHT22;15461;41.652;9.378;2023-04-24T03:04:25;16.10;99.90
28177;DHT22;15461;41.652;9.378;2023-04-24T03:06:52;16.20;99.90
28177;DHT22;15461;41.652;9.378;2023-04-24T03:09:21;16.20;99.90
28177;DHT22;15461;41.652;9.378;2023-04-24T03:11:48;16.20;99.90
28177;DHT22;15461;41.652;9.378;2023-04-24T03:14:15;16.30;99.90
28177;DHT22;15461;41.652;9.378;2023-04-24T03:16:41;16.30;99.90
28177;DHT22;15461;41.652;9.378;2023-04-24T03:19:07;16.40;99.90
28177;DHT22;15461;41.652;9.378;2023-04-24T03:21:39;16.50;99.90
28177;DHT22;15461;41.652;9.378;2023-04-24T03:24:07;16.50;99.90
28177;DHT22;15461;41.652;9.378;2023-04-24T03:26:35;16.50;99.90
28177;DHT22;15461;41.652;9.378;2023-04-24T03:29:15;16.50;99.90
28177;DHT22;15461;41.652;9.378;2023-04-24T03:31:41;16.50;99.90
28177;DHT22;15461;41.652;9.378;2023-04-24T03:34:07;16.50;99.90
28177;DHT22;15461;41.652;9.378;2023-04-24T03:36:34;16.50;99.90
28177;DHT22;15461;41.652;9.378;2023-04-24T03:39:00;16.50;99.90
28177;DHT22;15461;41.652;9.378;2023-04-24T03:41:31;16.60;99.90
28177;DHT22;15461;41.652;9.378;2023-04-24T03:44:23;16.50;99.90
28177;DHT22;15461;41.652;9.378;2023-04-24T03:46:49;16.60;99.90
28177;DHT22;15461;41.652;9.378;2023-04-24T03:49:16;16.50;99.90
28177;DHT22;15461;41.652;9.378;2023-04-24T03:51:45;16.50;99.90
28177;DHT22;15461;41.652;9.378;2023-04-24T03:54:23;16.50;99.90
28177;DHT22;15461;41.652;9.378;2023-04-24T03:56:50;16.60;99.90
28177;DHT22;15461;41.652;9.378;2023-04-24T03:59:16;16.60;99.90
28177;DHT22;15461;41.652;9.378;2023-04-24T04:01:46;16.60;99.90
28177;DHT22;15461;41.652;9.378;2023-04-24T04:04:16;16.70;99.90
28177;DHT22;15461;41.652;9.378;2023-04-24T04:06:44;16.60;99.90
28177;DHT22;15461;41.652;9.378;2023-04-24T04:09:10;16.70;99.90
28177;DHT22;15461;41.652;9.378;2023-04-24T04:11:36;16.70;99.90
28177;DHT22;15461;41.652;9.378;2023-04-24T04:14:02;16.70;99.90
28177;DHT22;15461;41.652;9.378;2023-04-24T04:16:29;16.70;99.90
28177;DHT22;15461;41.652;9.378;2023-04-24T04:19:01;16.70;99.90
28177;DHT22;15461;41.652;9.378;2023-04-24T04:21:28;16.70;99.90
28177;DHT22;15461;41.652;9.378;2023-04-24T04:24:03;16.60;99.90
28177;DHT22;15461;41.652;9.378;2023-04-24T04:26:36;16.60;99.90
28177;DHT22;15461;41.652;9.378;2023-04-24T04:29:11;16.50;99.90
28177;DHT22;15461;41.652;9.378;2023-04-24T04:31:41;16.50;99.90
28177;DHT22;15461;41.652;9.378;2023-04-24T04:34:11;16.50;99.90
28177;DHT22;15461;41.652;9.378;2023-04-24T04:36:39;16.50;99.90
28177;DHT22;15461;41.652;9.378;2023-04-24T04:39:23;16.50;99.90
28177;DHT22;15461;41.652;9.378;2023-04-24T04:41:55;16.50;99.90
28177;DHT22;15461;41.652;9.378;2023-04-24T04:44:26;16.50;99.90
28177;DHT22;15461;41.652;9.378;2023-04-24T04:46:53;16.60;99.90
28177;DHT22;15461;41.652;9.378;2023-04-24T04:49:27;16.60;99.90
28177;DHT22;15461;41.652;9.378;2023-04-24T04:51:54;16.60;99.90
28177;DHT22;15461;41.652;9.378;2023-04-24T04:54:22;16.60;99.90
28177;DHT22;15461;41.652;9.378;2023-04-24T04:56:50;16.60;99.90
28177;DHT22;15461;41.652;9.378;2023-04-24T04:59:16;16.60;99.90
28177;DHT22;15461;41.652;9.378;2023-04-24T05:01:42;16.50;99.90
28177;DHT22;15461;41.652;9.378;2023-04-24T05:04:10;16.50;99.90
28177;DHT22;15461;41.652;9.378;2023-04-24T05:06:37;16.40;99.90
28177;DHT22;15461;41.652;9.378;2023-04-24T05:09:04;16.40;99.90
28177;DHT22;15461;41.652;9.378;2023-04-24T05:11:41;16.40;99.90
28177;DHT22;15461;41.652;9.378;2023-04-24T05:14:07;16.40;99.90
28177;DHT22;15461;41.652;9.378;2023-04-24T05:16:37;16.50;99.90
28177;DHT22;15461;41.652;9.378;2023-04-24T05:19:04;16.50;99.90
28177;DHT22;15461;41.652;9.378;2023-04-24T05:21:36;16.50;99.90
28177;DHT22;15461;41.652;9.378;2023-04-24T05:24:02;16.60;99.90
28177;DHT22;15461;41.652;9.378;2023-04-24T05:27:00;16.60;99.90
28177;DHT22;15461;41.652;9.378;2023-04-24T05:29:42;16.60;99.90
28177;DHT22;15461;41.652;9.378;2023-04-24T05:32:09;16.70;99.90
28177;DHT22;15461;41.652;9.378;2023-04-24T05:34:35;16.70;99.90
28177;DHT22;15461;41.652;9.378;2023-04-24T05:37:02;16.70;99.90
28177;DHT22;15461;41.652;9.378;2023-04-24T05:39:29;16.70;99.90
28177;DHT22;15461;41.652;9.378;2023-04-24T05:41:55;16.70;99.90
28177;DHT22;15461;41.652;9.378;2023-04-24T05:44:25;16.80;99.90
28177;DHT22;15461;41.652;9.378;2023-04-24T05:47:37;16.80;99.90
28177;DHT22;15461;41.652;9.378;2023-04-24T05:50:05;16.80;99.90
28177;DHT22;15461;41.652;9.378;2023-04-24T05:52:33;16.90;99.90
28177;DHT22;15461;41.652;9.378;2023-04-24T05:55:02;16.90;99.90
28177;DHT22;15461;41.652;9.378;2023-04-24T05:57:36;17.00;99.90
28177;DHT22;15461;41.652;9.378;2023-04-24T06:00:04;17.10;99.90
28177;DHT22;15461;41.652;9.378;2023-04-24T06:02:39;17.10;99.90
28177;DHT22;15461;41.652;9.378;2023-04-24T06:05:08;17.20;99.90
28177;DHT22;15461;41.652;9.378;2023-04-24T06:07:35;17.30;99.90
28177;DHT22;15461;41.652;9.378;2023-04-24T06:10:04;17.40;99.90
28177;DHT22;15461;41.652;9.378;2023-04-24T06:12:37;17.50;99.90
28177;DHT22;15461;41.652;9.378;2023-04-24T06:15:09;17.60;99.90
28177;DHT22;15461;41.652;9.378;2023-04-24T06:18:10;17.70;99.90
28177;DHT22;15461;41.652;9.378;2023-04-24T06:20:38;17.90;99.90
28177;DHT22;15461;41.652;9.378;2023-04-24T06:23:04;17.90;99.90
28177;DHT22;15461;41.652;9.378;2023-04-24T06:25:32;18.00;99.90
28177;DHT22;15461;41.652;9.378;2023-04-24T06:27:58;18.10;99.90
28177;DHT22;15461;41.652;9.378;2023-04-24T06:30:24;18.20;99.90
28177;DHT22;15461;41.652;9.378;2023-04-24T06:32:50;18.20;99.90
28177;DHT22;15461;41.652;9.378;2023-04-24T06:35:16;18.30;99.90
28177;DHT22;15461;41.652;9.378;2023-04-24T06:37:43;18.40;99.90
28177;DHT22;15461;41.652;9.378;2023-04-24T06:40:09;18.50;99.90
28177;DHT22;15461;41.652;9.378;2023-04-24T06:42:36;18.50;99.90
28177;DHT22;15461;41.652;9.378;2023-04-24T06:45:04;18.60;99.90
28177;DHT22;15461;41.652;9.378;2023-04-24T06:47:31;18.70;99.90
28177;DHT22;15461;41.652;9.378;2023-04-24T06:49:58;18.90;99.90
28177;DHT22;15461;41.652;9.378;2023-04-24T06:52:24;19.00;99.90
28177;DHT22;15461;41.652;9.378;2023-04-24T06:54:50;18.90;99.90
28177;DHT22;15461;41.652;9.378;2023-04-24T06:57:17;18.80;99.90
28177;DHT22;15461;41.652;9.378;2023-04-24T06:59:43;18.80;99.90
28177;DHT22;15461;41.652;9.378;2023-04-24T07:02:09;18.90;99.90
28177;DHT22;15461;41.652;9.378;2023-04-24T07:04:35;19.00;99.90
28177;DHT22;15461;41.652;9.378;2023-04-24T07:07:02;19.00;99.90
28177;DHT22;15461;41.652;9.378;2023-04-24T07:09:28;19.00;99.90
28177;DHT22;15461;41.652;9.378;2023-04-24T07:11:54;19.00;99.90
28177;DHT22;15461;41.652;9.378;2023-04-24T07:14:23;19.20;99.90
28177;DHT22;15461;41.652;9.378;2023-04-24T07:16:49;19.30;99.90
28177;DHT22;15461;41.652;9.378;2023-04-24T07:19:15;19.50;99.90
28177;DHT22;15461;41.652;9.378;2023-04-24T07:21:41;19.80;99.90
28177;DHT22;15461;41.652;9.378;2023-04-24T07:24:07;19.90;99.90
28177;DHT22;15461;41.652;9.378;2023-04-24T07:26:37;20.10;99.90
28177;DHT22;15461;41.652;9.378;2023-04-24T07:29:03;20.10;99.90
28177;DHT22;15461;41.652;9.378;2023-04-24T07:31:29;20.20;99.90
28177;DHT22;15461;41.652;9.378;2023-04-24T07:33:56;20.30;99.90
28177;DHT22;15461;41.652;9.378;2023-04-24T07:36:24;20.30;99.90
28177;DHT22;15461;41.652;9.378;2023-04-24T07:38:51;20.50;99.90
28177;DHT22;15461;41.652;9.378;2023-04-24T07:41:18;20.60;99.90
28177;DHT22;15461;41.652;9.378;2023-04-24T07:43:53;20.60;99.90
28177;DHT22;15461;41.652;9.378;2023-04-24T07:46:20;20.80;99.90
28177;DHT22;15461;41.652;9.378;2023-04-24T07:48:46;20.90;99.90
28177;DHT22;15461;41.652;9.378;2023-04-24T07:51:14;21.00;99.90
28177;DHT22;15461;41.652;9.378;2023-04-24T07:53:42;21.10;99.90
28177;DHT22;15461;41.652;9.378;2023-04-24T07:56:08;21.20;99.90
28177;DHT22;15461;41.652;9.378;2023-04-24T07:58:34;21.30;99.90
28177;DHT22;15461;41.652;9.378;2023-04-24T08:01:00;21.40;99.90
28177;DHT22;15461;41.652;9.378;2023-04-24T08:03:26;21.60;99.90
28177;DHT22;15461;41.652;9.378;2023-04-24T08:05:52;21.80;99.90
28177;DHT22;15461;41.652;9.378;2023-04-24T08:08:21;21.80;99.90
28177;DHT22;15461;41.652;9.378;2023-04-24T08:10:47;21.90;99.90
28177;DHT22;15461;41.652;9.378;2023-04-24T08:13:13;21.80;99.90
28177;DHT22;15461;41.652;9.378;2023-04-24T08:15:39;21.90;99.90
28177;DHT22;15461;41.652;9.378;2023-04-24T08:18:05;22.00;99.90
28177;DHT22;15461;41.652;9.378;2023-04-24T08:20:31;22.00;99.90
28177;DHT22;15461;41.652;9.378;2023-04-24T08:22:57;22.00;99.90
28177;DHT22;15461;41.652;9.378;2023-04-24T08:25:22;22.00;99.90
28177;DHT22;15461;41.652;9.378;2023-04-24T08:27:50;22.10;99.90
28177;DHT22;15461;41.652;9.378;2023-04-24T08:30:17;22.20;99.90
28177;DHT22;15461;41.652;9.378;2023-04-24T08:32:43;22.10;99.90
28177;DHT22;15461;41.652;9.378;2023-04-24T08:35:09;22.20;99.90
28177;DHT22;15461;41.652;9.378;2023-04-24T08:37:35;22.20;99.90
28177;DHT22;15461;41.652;9.378;2023-04-24T08:40:14;22.30;99.90
28177;DHT22;15461;41.652;9.378;2023-04-24T08:42:44;22.50;99.90
28177;DHT22;15461;41.652;9.378;2023-04-24T08:45:11;22.50;99.90
28177;DHT22;15461;41.652;9.378;2023-04-24T08:47:39;22.50;99.90
28177;DHT22;15461;41.652;9.378;2023-04-24T08:50:06;22.60;99.90
28177;DHT22;15461;41.652;9.378;2023-04-24T08:52:33;22.80;99.90
28177;DHT22;15461;41.652;9.378;2023-04-24T08:55:03;22.80;99.90
28177;DHT22;15461;41.652;9.378;2023-04-24T08:57:30;22.70;99.90
28177;DHT22;15461;41.652;9.378;2023-04-24T08:59:58;22.60;99.90
28177;DHT22;15461;41.652;9.378;2023-04-24T09:02:24;22.40;99.90
28177;DHT22;15461;41.652;9.378;2023-04-24T09:04:51;22.40;99.90
28177;DHT22;15461;41.652;9.378;2023-04-24T09:07:19;22.50;99.90
28177;DHT22;15461;41.652;9.378;2023-04-24T09:09:45;22.60;99.90
28177;DHT22;15461;41.652;9.378;2023-04-24T09:12:12;22.70;99.90
28177;DHT22;15461;41.652;9.378;2023-04-24T09:14:38;22.90;99.90
28177;DHT22;15461;41.652;9.378;2023-04-24T09:17:08;22.90;99.90
28177;DHT22;15461;41.652;9.378;2023-04-24T09:19:34;23.00;99.90
28177;DHT22;15461;41.652;9.378;2023-04-24T09:22:05;23.10;99.90
28177;DHT22;15461;41.652;9.378;2023-04-24T09:24:31;23.10;99.90
28177;DHT22;15461;41.652;9.378;2023-04-24T09:26:58;23.00;99.90
28177;DHT22;15461;41.652;9.378;2023-04-24T09:29:24;22.90;99.90
28177;DHT22;15461;41.652;9.378;2023-04-24T09:31:50;22.90;99.90
28177;DHT22;15461;41.652;9.378;2023-04-24T09:34:22;23.00;99.90
28177;DHT22;15461;41.652;9.378;2023-04-24T09:36:49;23.00;99.90
28177;DHT22;15461;41.652;9.378;2023-04-24T09:39:16;22.70;99.90
28177;DHT22;15461;41.652;9.378;2023-04-24T09:41:50;22.70;99.90
28177;DHT22;15461;41.652;9.378;2023-04-24T09:44:18;22.70;99.90
28177;DHT22;15461;41.652;9.378;2023-04-24T09:46:50;22.70;99.90
28177;DHT22;15461;41.652;9.378;2023-04-24T09:49:21;22.80;99.90
28177;DHT22;15461;41.652;9.378;2023-04-24T09:51:47;22.80;99.90
28177;DHT22;15461;41.652;9.378;2023-04-24T09:54:18;22.70;99.90
28177;DHT22;15461;41.652;9.378;2023-04-24T09:56:49;22.60;99.90
28177;DHT22;15461;41.652;9.378;2023-04-24T09:59:17;22.60;99.90
28177;DHT22;15461;41.652;9.378;2023-04-24T10:01:44;22.40;99.90
28177;DHT22;15461;41.652;9.378;2023-04-24T10:04:24;22.30;99.90
28177;DHT22;15461;41.652;9.378;2023-04-24T10:06:52;22.20;99.90
28177;DHT22;15461;41.652;9.378;2023-04-24T10:09:20;22.20;99.90
28177;DHT22;15461;41.652;9.378;2023-04-24T10:11:48;22.10;99.90
28177;DHT22;15461;41.652;9.378;2023-04-24T10:14:16;22.20;99.90
28177;DHT22;15461;41.652;9.378;2023-04-24T10:16:43;22.00;99.90
28177;DHT22;15461;41.652;9.378;2023-04-24T10:19:10;22.00;99.90
28177;DHT22;15461;41.652;9.378;2023-04-24T10:21:36;22.10;99.90
28177;DHT22;15461;41.652;9.378;2023-04-24T10:24:12;22.10;99.90
28177;DHT22;15461;41.652;9.378;2023-04-24T10:26:40;22.30;99.90
28177;DHT22;15461;41.652;9.378;2023-04-24T10:29:06;22.50;99.90
28177;DHT22;15461;41.652;9.378;2023-04-24T10:31:36;22.50;99.90
28177;DHT22;15461;41.652;9.378;2023-04-24T10:34:05;22.60;99.90
28177;DHT22;15461;41.652;9.378;2023-04-24T10:36:33;22.70;99.90
28177;DHT22;15461;41.652;9.378;2023-04-24T10:39:02;22.70;99.90
28177;DHT22;15461;41.652;9.378;2023-04-24T10:41:30;22.80;99.90
28177;DHT22;15461;41.652;9.378;2023-04-24T10:44:13;22.90;99.90
28177;DHT22;15461;41.652;9.378;2023-04-24T10:46:43;23.00;99.90
28177;DHT22;15461;41.652;9.378;2023-04-24T10:49:09;23.10;99.90
28177;DHT22;15461;41.652;9.378;2023-04-24T10:51:48;23.00;99.90
28177;DHT22;15461;41.652;9.378;2023-04-24T10:54:29;23.10;99.90
28177;DHT22;15461;41.652;9.378;2023-04-24T10:59:47;23.40;99.90
28177;DHT22;15461;41.652;9.378;2023-04-24T11:02:17;23.30;99.90
28177;DHT22;15461;41.652;9.378;2023-04-24T11:04:43;23.20;99.90
28177;DHT22;15461;41.652;9.378;2023-04-24T11:07:11;23.10;99.90
28177;DHT22;15461;41.652;9.378;2023-04-24T11:09:37;23.10;99.90
28177;DHT22;15461;41.652;9.378;2023-04-24T11:12:10;23.10;99.90
28177;DHT22;15461;41.652;9.378;2023-04-24T11:17:34;23.10;99.90
28177;DHT22;15461;41.652;9.378;2023-04-24T11:20:05;23.00;99.90
28177;DHT22;15461;41.652;9.378;2023-04-24T11:22:34;23.00;99.90
28177;DHT22;15461;41.652;9.378;2023-04-24T11:25:03;22.90;99.90
28177;DHT22;15461;41.652;9.378;2023-04-24T11:27:38;22.90;99.90
28177;DHT22;15461;41.652;9.378;2023-04-24T11:30:05;22.90;99.90
28177;DHT22;15461;41.652;9.378;2023-04-24T11:32:38;22.80;99.90
28177;DHT22;15461;41.652;9.378;2023-04-24T11:35:25;22.90;99.90
28177;DHT22;15461;41.652;9.378;2023-04-24T11:37:52;22.90;99.90
28177;DHT22;15461;41.652;9.378;2023-04-24T11:40:19;23.00;99.90
28177;DHT22;15461;41.652;9.378;2023-04-24T11:42:50;22.90;99.90
28177;DHT22;15461;41.652;9.378;2023-04-24T11:47:44;22.80;99.90
28177;DHT22;15461;41.652;9.378;2023-04-24T11:50:13;22.70;99.90
28177;DHT22;15461;41.652;9.378;2023-04-24T11:52:44;22.70;99.90
28177;DHT22;15461;41.652;9.378;2023-04-24T11:57:48;22.60;99.90
28177;DHT22;15461;41.652;9.378;2023-04-24T12:00:27;22.60;99.90
28177;DHT22;15461;41.652;9.378;2023-04-24T12:03:10;22.60;99.90
28177;DHT22;15461;41.652;9.378;2023-04-24T12:05:37;22.70;99.90
28177;DHT22;15461;41.652;9.378;2023-04-24T12:08:03;22.70;99.90
28177;DHT22;15461;41.652;9.378;2023-04-24T12:10:31;22.60;99.90
28177;DHT22;15461;41.652;9.378;2023-04-24T12:12:58;22.50;99.90
28177;DHT22;15461;41.652;9.378;2023-04-24T12:15:24;22.50;99.90
28177;DHT22;15461;41.652;9.378;2023-04-24T12:17:52;22.50;99.90
28177;DHT22;15461;41.652;9.378;2023-04-24T12:20:24;22.60;99.90
28177;DHT22;15461;41.652;9.378;2023-04-24T12:23:00;22.60;99.90
28177;DHT22;15461;41.652;9.378;2023-04-24T12:25:28;22.60;99.90
28177;DHT22;15461;41.652;9.378;2023-04-24T12:30:34;22.50;99.90
28177;DHT22;15461;41.652;9.378;2023-04-24T12:33:02;22.40;99.90
28177;DHT22;15461;41.652;9.378;2023-04-24T12:35:30;22.40;99.90
28177;DHT22;15461;41.652;9.378;2023-04-24T12:38:11;22.60;99.90
28177;DHT22;15461;41.652;9.378;2023-04-24T12:40:39;22.50;99.90
28177;DHT22;15461;41.652;9.378;2023-04-24T12:43:19;22.50;99.90
28177;DHT22;15461;41.652;9.378;2023-04-24T12:45:46;22.40;99.90
28177;DHT22;15461;41.652;9.378;2023-04-24T12:48:12;22.50;99.90
28177;DHT22;15461;41.652;9.378;2023-04-24T12:50:42;22.60;99.90
28177;DHT22;15461;41.652;9.378;2023-04-24T12:53:08;22.60;99.90
28177;DHT22;15461;41.652;9.378;2023-04-24T12:55:35;22.60;99.90
28177;DHT22;15461;41.652;9.378;2023-04-24T12:58:00;22.60;99.90
28177;DHT22;15461;41.652;9.378;2023-04-24T13:00:28;22.60;99.90
28177;DHT22;15461;41.652;9.378;2023-04-24T13:02:55;22.50;99.90
28177;DHT22;15461;41.652;9.378;2023-04-24T13:05:20;22.60;99.90
28177;DHT22;15461;41.652;9.378;2023-04-24T13:07:46;22.60;99.90
28177;DHT22;15461;41.652;9.378;2023-04-24T13:10:12;22.50;99.90
28177;DHT22;15461;41.652;9.378;2023-04-24T13:12:39;22.50;99.90
28177;DHT22;15461;41.652;9.378;2023-04-24T13:15:06;22.50;99.90
28177;DHT22;15461;41.652;9.378;2023-04-24T13:17:32;22.50;99.90
28177;DHT22;15461;41.652;9.378;2023-04-24T13:19:58;22.70;99.90
28177;DHT22;15461;41.652;9.378;2023-04-24T13:22:24;22.90;99.90
28177;DHT22;15461;41.652;9.378;2023-04-24T13:24:50;22.90;99.90
28177;DHT22;15461;41.652;9.378;2023-04-24T13:27:17;22.80;99.90
28177;DHT22;15461;41.652;9.378;2023-04-24T13:29:43;22.90;99.90
28177;DHT22;15461;41.652;9.378;2023-04-24T13:32:10;22.90;99.90
28177;DHT22;15461;41.652;9.378;2023-04-24T13:34:36;23.00;99.90
28177;DHT22;15461;41.652;9.378;2023-04-24T13:37:02;22.90;99.90
28177;DHT22;15461;41.652;9.378;2023-04-24T13:39:29;22.90;99.90
28177;DHT22;15461;41.652;9.378;2023-04-24T13:41:55;22.80;99.90
28177;DHT22;15461;41.652;9.378;2023-04-24T13:44:22;22.80;99.90
28177;DHT22;15461;41.652;9.378;2023-04-24T13:46:53;22.90;99.90
28177;DHT22;15461;41.652;9.378;2023-04-24T13:49:20;22.90;99.90
28177;DHT22;15461;41.652;9.378;2023-04-24T13:51:47;22.90;99.90
28177;DHT22;15461;41.652;9.378;2023-04-24T13:54:13;23.00;99.90
28177;DHT22;15461;41.652;9.378;2023-04-24T13:56:39;22.90;99.90
28177;DHT22;15461;41.652;9.378;2023-04-24T13:59:06;23.10;99.90
28177;DHT22;15461;41.652;9.378;2023-04-24T14:01:32;23.10;99.90
28177;DHT22;15461;41.652;9.378;2023-04-24T14:03:58;23.20;99.90
28177;DHT22;15461;41.652;9.378;2023-04-24T14:06:23;23.20;99.90
28177;DHT22;15461;41.652;9.378;2023-04-24T14:08:50;23.20;99.90
28177;DHT22;15461;41.652;9.378;2023-04-24T14:11:17;23.10;99.90
28177;DHT22;15461;41.652;9.378;2023-04-24T14:13:43;23.00;99.90
28177;DHT22;15461;41.652;9.378;2023-04-24T14:16:10;23.00;99.90
28177;DHT22;15461;41.652;9.378;2023-04-24T14:18:36;22.90;99.90
28177;DHT22;15461;41.652;9.378;2023-04-24T14:21:03;22.60;99.90
28177;DHT22;15461;41.652;9.378;2023-04-24T14:23:29;22.40;99.90
28177;DHT22;15461;41.652;9.378;2023-04-24T14:25:55;22.40;99.90
28177;DHT22;15461;41.652;9.378;2023-04-24T14:28:21;22.00;99.90
28177;DHT22;15461;41.652;9.378;2023-04-24T14:30:47;21.80;99.90
28177;DHT22;15461;41.652;9.378;2023-04-24T14:33:14;21.70;99.90
28177;DHT22;15461;41.652;9.378;2023-04-24T14:35:40;21.60;99.90
28177;DHT22;15461;41.652;9.378;2023-04-24T14:38:08;21.70;99.90
28177;DHT22;15461;41.652;9.378;2023-04-24T14:40:34;21.80;99.90
28177;DHT22;15461;41.652;9.378;2023-04-24T14:43:01;21.70;99.90
28177;DHT22;15461;41.652;9.378;2023-04-24T14:45:27;21.70;99.90
28177;DHT22;15461;41.652;9.378;2023-04-24T14:47:53;21.90;99.90
28177;DHT22;15461;41.652;9.378;2023-04-24T14:50:19;22.00;99.90
28177;DHT22;15461;41.652;9.378;2023-04-24T14:52:46;21.80;99.90
28177;DHT22;15461;41.652;9.378;2023-04-24T14:55:12;21.60;99.90
28177;DHT22;15461;41.652;9.378;2023-04-24T14:57:38;21.60;99.90
28177;DHT22;15461;41.652;9.378;2023-04-24T15:00:05;21.60;99.90
28177;DHT22;15461;41.652;9.378;2023-04-24T15:02:34;21.70;99.90
28177;DHT22;15461;41.652;9.378;2023-04-24T15:05:02;21.60;99.90
28177;DHT22;15461;41.652;9.378;2023-04-24T15:07:32;21.60;99.90
28177;DHT22;15461;41.652;9.378;2023-04-24T15:09:58;21.80;99.90
28177;DHT22;15461;41.652;9.378;2023-04-24T15:12:24;21.90;99.90
28177;DHT22;15461;41.652;9.378;2023-04-24T15:14:50;21.90;99.90
28177;DHT22;15461;41.652;9.378;2023-04-24T15:17:16;21.80;99.90
28177;DHT22;15461;41.652;9.378;2023-04-24T15:19:42;21.70;99.90
28177;DHT22;15461;41.652;9.378;2023-04-24T15:22:09;21.40;99.90
28177;DHT22;15461;41.652;9.378;2023-04-24T15:24:35;21.10;99.90
28177;DHT22;15461;41.652;9.378;2023-04-24T15:27:01;21.10;99.90
28177;DHT22;15461;41.652;9.378;2023-04-24T15:29:27;21.00;99.90
28177;DHT22;15461;41.652;9.378;2023-04-24T15:31:53;21.00;99.90
28177;DHT22;15461;41.652;9.378;2023-04-24T15:34:19;21.00;99.90
28177;DHT22;15461;41.652;9.378;2023-04-24T15:36:45;20.90;99.90
28177;DHT22;15461;41.652;9.378;2023-04-24T15:39:11;20.80;99.90
28177;DHT22;15461;41.652;9.378;2023-04-24T15:41:37;20.70;99.90
28177;DHT22;15461;41.652;9.378;2023-04-24T15:44:04;20.60;99.90
28177;DHT22;15461;41.652;9.378;2023-04-24T15:46:34;20.60;99.90
28177;DHT22;15461;41.652;9.378;2023-04-24T15:49:01;20.70;99.90